sensor_id;sensor_type;location;lat;lon;timestamp;temperature;humidity
23149;DHT22;11743;51.228;22.498;2023-05-27T00:00:15;10.30;99.90
23149;DHT22;11743;51.228;22.498;2023-05-27T00:00:37;10.30;99.90
23149;DHT22;11743;51.228;22.498;2023-05-27T00:00:59;10.30;99.90
23149;DHT22;11743;51.228;22.498;2023-05-27T00:01:21;10.30;99.90
23149;DHT22;11743;51.228;22.498;2023-05-27T00:01:43;10.30;99.90
23149;DHT22;11743;51.228;22.498;2023-05-27T00:02:05;10.30;99.90
23149;DHT22;11743;51.228;22.498;2023-05-27T00:02:26;10.20;99.90
23149;DHT22;11743;51.228;22.498;2023-05-27T00:02:49;10.30;99.90
23149;DHT22;11743;51.228;22.498;2023-05-27T00:03:11;10.20;99.90
23149;DHT22;11743;51.228;22.498;2023-05-27T00:03:33;10.20;99.90
23149;DHT22;11743;51.228;22.498;2023-05-27T00:03:55;10.20;99.90
23149;DHT22;11743;51.228;22.498;2023-05-27T00:04:18;10.30;99.90
23149;DHT22;11743;51.228;22.498;2023-05-27T00:04:40;10.20;99.90
23149;DHT22;11743;51.228;22.498;2023-05-27T00:05:02;10.20;99.90
23149;DHT22;11743;51.228;22.498;2023-05-27T00:05:24;10.30;99.90
23149;DHT22;11743;51.228;22.498;2023-05-27T00:05:46;10.30;99.90
23149;DHT22;11743;51.228;22.498;2023-05-27T00:06:08;10.20;99.90
23149;DHT22;11743;51.228;22.498;2023-05-27T00:06:30;10.20;99.90
23149;DHT22;11743;51.228;22.498;2023-05-27T00:06:52;10.20;99.90
23149;DHT22;11743;51.228;22.498;2023-05-27T00:07:14;10.20;99.90
23149;DHT22;11743;51.228;22.498;2023-05-27T00:07:36;10.30;99.90
23149;DHT22;11743;51.228;22.498;2023-05-27T00:07:58;10.20;99.90
23149;DHT22;11743;51.228;22.498;2023-05-27T00:08:19;10.20;99.90
23149;DHT22;11743;51.228;22.498;2023-05-27T00:08:41;10.20;99.90
23149;DHT22;11743;51.228;22.498;2023-05-27T00:09:03;10.20;99.90
23149;DHT22;11743;51.228;22.498;2023-05-27T00:09:25;10.20;99.90
23149;DHT22;11743;51.228;22.498;2023-05-27T00:09:47;10.20;99.90
23149;DHT22;11743;51.228;22.498;2023-05-27T00:10:09;10.20;99.90
23149;DHT22;11743;51.228;22.498;2023-05-27T00:10:31;10.20;99.90
23149;DHT22;11743;51.228;22.498;2023-05-27T00:10:53;10.20;99.90
23149;DHT22;11743;51.228;22.498;2023-05-27T00:11:15;10.20;99.90
23149;DHT22;11743;51.228;22.498;2023-05-27T00:11:37;10.20;99.90
23149;DHT22;11743;51.228;22.498;2023-05-27T00:11:59;10.20;99.90
23149;DHT22;11743;51.228;22.498;2023-05-27T00:12:21;10.20;99.90
23149;DHT22;11743;51.228;22.498;2023-05-27T00:12:42;10.20;99.90
23149;DHT22;11743;51.228;22.498;2023-05-27T00:13:04;10.20;99.90
23149;DHT22;11743;51.228;22.498;2023-05-27T00:13:26;10.20;99.90
23149;DHT22;11743;51.228;22.498;2023-05-27T00:13:48;10.20;99.90
23149;DHT22;11743;51.228;22.498;2023-05-27T00:14:10;10.20;99.90
23149;DHT22;11743;51.228;22.498;2023-05-27T00:14:32;10.20;99.90
23149;DHT22;11743;51.228;22.498;2023-05-27T00:14:54;10.10;99.90
23149;DHT22;11743;51.228;22.498;2023-05-27T00:15:15;10.20;99.90
23149;DHT22;11743;51.228;22.498;2023-05-27T00:15:40;10.20;99.90
23149;DHT22;11743;51.228;22.498;2023-05-27T00:16:02;10.10;99.90
23149;DHT22;11743;51.228;22.498;2023-05-27T00:16:24;10.10;99.90
23149;DHT22;11743;51.228;22.498;2023-05-27T00:16:46;10.10;99.90
23149;DHT22;11743;51.228;22.498;2023-05-27T00:17:08;10.10;99.90
23149;DHT22;11743;51.228;22.498;2023-05-27T00:17:36;10.10;99.90
23149;DHT22;11743;51.228;22.498;2023-05-27T00:17:58;10.10;99.90
23149;DHT22;11743;51.228;22.498;2023-05-27T00:18:23;10.10;99.90
23149;DHT22;11743;51.228;22.498;2023-05-27T00:18:47;10.10;99.90
23149;DHT22;11743;51.228;22.498;2023-05-27T00:19:09;10.00;99.90
23149;DHT22;11743;51.228;22.498;2023-05-27T00:19:31;10.10;99.90
23149;DHT22;11743;51.228;22.498;2023-05-27T00:19:53;10.00;99.90
23149;DHT22;11743;51.228;22.498;2023-05-27T00:20:16;10.00;99.90
23149;DHT22;11743;51.228;22.498;2023-05-27T00:20:38;10.00;99.90
23149;DHT22;11743;51.228;22.498;2023-05-27T00:21:00;10.00;99.90
23149;DHT22;11743;51.228;22.498;2023-05-27T00:21:21;10.00;99.90
23149;DHT22;11743;51.228;22.498;2023-05-27T00:21:43;10.00;99.90
23149;DHT22;11743;51.228;22.498;2023-05-27T00:22:06;10.00;99.90
23149;DHT22;11743;51.228;22.498;2023-05-27T00:22:28;10.00;99.90
23149;DHT22;11743;51.228;22.498;2023-05-27T00:22:50;10.00;99.90
23149;DHT22;11743;51.228;22.498;2023-05-27T00:23:12;10.00;99.90
23149;DHT22;11743;51.228;22.498;2023-05-27T00:23:34;10.00;99.90
23149;DHT22;11743;51.228;22.498;2023-05-27T00:23:56;10.00;99.90
23149;DHT22;11743;51.228;22.498;2023-05-27T00:24:21;10.00;99.90
23149;DHT22;11743;51.228;22.498;2023-05-27T00:24:43;10.00;99.90
23149;DHT22;11743;51.228;22.498;2023-05-27T00:25:05;10.00;99.90
23149;DHT22;11743;51.228;22.498;2023-05-27T00:25:27;10.00;99.90
23149;DHT22;11743;51.228;22.498;2023-05-27T00:25:49;10.00;99.90
23149;DHT22;11743;51.228;22.498;2023-05-27T00:26:11;10.00;99.90
23149;DHT22;11743;51.228;22.498;2023-05-27T00:26:33;10.00;99.90
23149;DHT22;11743;51.228;22.498;2023-05-27T00:26:55;10.00;99.90
23149;DHT22;11743;51.228;22.498;2023-05-27T00:27:17;10.00;99.90
23149;DHT22;11743;51.228;22.498;2023-05-27T00:27:39;10.00;99.90
23149;DHT22;11743;51.228;22.498;2023-05-27T00:28:01;10.00;99.90
23149;DHT22;11743;51.228;22.498;2023-05-27T00:28:23;10.00;99.90
23149;DHT22;11743;51.228;22.498;2023-05-27T00:28:44;10.00;99.90
23149;DHT22;11743;51.228;22.498;2023-05-27T00:29:06;10.00;99.90
23149;DHT22;11743;51.228;22.498;2023-05-27T00:29:28;10.00;99.90
23149;DHT22;11743;51.228;22.498;2023-05-27T00:29:50;10.00;99.90
23149;DHT22;11743;51.228;22.498;2023-05-27T00:30:12;10.00;99.90
23149;DHT22;11743;51.228;22.498;2023-05-27T00:30:34;10.00;99.90
23149;DHT22;11743;51.228;22.498;2023-05-27T00:30:56;10.10;99.90
23149;DHT22;11743;51.228;22.498;2023-05-27T00:31:18;10.00;99.90
23149;DHT22;11743;51.228;22.498;2023-05-27T00:31:40;10.10;99.90
23149;DHT22;11743;51.228;22.498;2023-05-27T00:32:03;10.10;99.90
23149;DHT22;11743;51.228;22.498;2023-05-27T00:32:25;10.10;99.90
23149;DHT22;11743;51.228;22.498;2023-05-27T00:32:47;10.10;99.90
23149;DHT22;11743;51.228;22.498;2023-05-27T00:33:09;10.10;99.90
23149;DHT22;11743;51.228;22.498;2023-05-27T00:33:31;10.10;99.90
23149;DHT22;11743;51.228;22.498;2023-05-27T00:33:53;10.10;99.90
23149;DHT22;11743;51.228;22.498;2023-05-27T00:34:15;10.10;99.90
23149;DHT22;11743;51.228;22.498;2023-05-27T00:34:37;10.10;99.90
23149;DHT22;11743;51.228;22.498;2023-05-27T00:34:58;10.10;99.90
23149;DHT22;11743;51.228;22.498;2023-05-27T00:35:20;10.10;99.90
23149;DHT22;11743;51.228;22.498;2023-05-27T00:35:42;10.10;99.90
23149;DHT22;11743;51.228;22.498;2023-05-27T00:36:04;10.10;99.90
23149;DHT22;11743;51.228;22.498;2023-05-27T00:36:26;10.10;99.90
23149;DHT22;11743;51.228;22.498;2023-05-27T00:36:48;10.10;99.90
23149;DHT22;11743;51.228;22.498;2023-05-27T00:37:10;10.10;99.90
23149;DHT22;11743;51.228;22.498;2023-05-27T00:37:32;10.10;99.90
23149;DHT22;11743;51.228;22.498;2023-05-27T00:37:53;10.20;99.90
23149;DHT22;11743;51.228;22.498;2023-05-27T00:38:15;10.20;99.90
23149;DHT22;11743;51.228;22.498;2023-05-27T00:38:37;10.20;99.90
23149;DHT22;11743;51.228;22.498;2023-05-27T00:39:00;10.20;99.90
23149;DHT22;11743;51.228;22.498;2023-05-27T00:39:22;10.10;99.90
23149;DHT22;11743;51.228;22.498;2023-05-27T00:39:44;10.20;99.90
23149;DHT22;11743;51.228;22.498;2023-05-27T00:40:09;10.20;99.90
23149;DHT22;11743;51.228;22.498;2023-05-27T00:40:32;10.20;99.90
23149;DHT22;11743;51.228;22.498;2023-05-27T00:40:56;10.20;99.90
23149;DHT22;11743;51.228;22.498;2023-05-27T00:41:22;10.20;99.90
23149;DHT22;11743;51.228;22.498;2023-05-27T00:41:49;10.20;99.90
23149;DHT22;11743;51.228;22.498;2023-05-27T00:42:13;10.30;99.90
23149;DHT22;11743;51.228;22.498;2023-05-27T00:42:34;10.30;99.90
23149;DHT22;11743;51.228;22.498;2023-05-27T00:42:56;10.30;99.90
23149;DHT22;11743;51.228;22.498;2023-05-27T00:43:18;10.30;99.90
23149;DHT22;11743;51.228;22.498;2023-05-27T00:43:40;10.30;99.90
23149;DHT22;11743;51.228;22.498;2023-05-27T00:44:02;10.30;99.90
23149;DHT22;11743;51.228;22.498;2023-05-27T00:44:25;10.30;99.90
23149;DHT22;11743;51.228;22.498;2023-05-27T00:44:47;10.30;99.90
23149;DHT22;11743;51.228;22.498;2023-05-27T00:45:09;10.30;99.90
23149;DHT22;11743;51.228;22.498;2023-05-27T00:45:31;10.30;99.90
23149;DHT22;11743;51.228;22.498;2023-05-27T00:45:53;10.30;99.90
23149;DHT22;11743;51.228;22.498;2023-05-27T00:46:15;10.30;99.90
23149;DHT22;11743;51.228;22.498;2023-05-27T00:46:37;10.30;99.90
23149;DHT22;11743;51.228;22.498;2023-05-27T00:46:59;10.30;99.90
23149;DHT22;11743;51.228;22.498;2023-05-27T00:47:22;10.30;99.90
23149;DHT22;11743;51.228;22.498;2023-05-27T00:47:45;10.30;99.90
23149;DHT22;11743;51.228;22.498;2023-05-27T00:48:07;10.30;99.90
23149;DHT22;11743;51.228;22.498;2023-05-27T00:48:29;10.30;99.90
23149;DHT22;11743;51.228;22.498;2023-05-27T00:48:51;10.30;99.90
23149;DHT22;11743;51.228;22.498;2023-05-27T00:49:13;10.30;99.90
23149;DHT22;11743;51.228;22.498;2023-05-27T00:49:35;10.30;99.90
23149;DHT22;11743;51.228;22.498;2023-05-27T00:49:57;10.30;99.90
23149;DHT22;11743;51.228;22.498;2023-05-27T00:50:19;10.30;99.90
23149;DHT22;11743;51.228;22.498;2023-05-27T00:50:43;10.30;99.90
23149;DHT22;11743;51.228;22.498;2023-05-27T00:51:05;10.30;99.90
23149;DHT22;11743;51.228;22.498;2023-05-27T00:51:27;10.30;99.90
23149;DHT22;11743;51.228;22.498;2023-05-27T00:51:49;10.30;99.90
23149;DHT22;11743;51.228;22.498;2023-05-27T00:52:11;10.30;99.90
23149;DHT22;11743;51.228;22.498;2023-05-27T00:52:34;10.30;99.90
23149;DHT22;11743;51.228;22.498;2023-05-27T00:52:57;10.30;99.90
23149;DHT22;11743;51.228;22.498;2023-05-27T00:53:19;10.30;99.90
23149;DHT22;11743;51.228;22.498;2023-05-27T00:53:43;10.30;99.90
23149;DHT22;11743;51.228;22.498;2023-05-27T00:54:07;10.30;99.90
23149;DHT22;11743;51.228;22.498;2023-05-27T00:54:30;10.30;99.90
23149;DHT22;11743;51.228;22.498;2023-05-27T00:54:53;10.30;99.90
23149;DHT22;11743;51.228;22.498;2023-05-27T00:55:17;10.30;99.90
23149;DHT22;11743;51.228;22.498;2023-05-27T00:55:39;10.30;99.90
23149;DHT22;11743;51.228;22.498;2023-05-27T00:56:02;10.20;99.90
23149;DHT22;11743;51.228;22.498;2023-05-27T00:56:24;10.30;99.90
23149;DHT22;11743;51.228;22.498;2023-05-27T00:56:46;10.20;99.90
23149;DHT22;11743;51.228;22.498;2023-05-27T00:57:09;10.20;99.90
23149;DHT22;11743;51.228;22.498;2023-05-27T00:57:31;10.20;1.00
23149;DHT22;11743;51.228;22.498;2023-05-27T00:57:53;10.20;99.90
23149;DHT22;11743;51.228;22.498;2023-05-27T00:58:16;10.20;1.00
23149;DHT22;11743;51.228;22.498;2023-05-27T00:58:39;10.20;1.00
23149;DHT22;11743;51.228;22.498;2023-05-27T00:59:01;10.20;99.90
23149;DHT22;11743;51.228;22.498;2023-05-27T00:59:23;10.20;99.90
23149;DHT22;11743;51.228;22.498;2023-05-27T00:59:46;10.20;1.00
23149;DHT22;11743;51.228;22.498;2023-05-27T01:00:08;10.20;1.00
23149;DHT22;11743;51.228;22.498;2023-05-27T01:00:33;10.20;1.00
23149;DHT22;11743;51.228;22.498;2023-05-27T01:00:56;10.20;1.00
23149;DHT22;11743;51.228;22.498;2023-05-27T01:01:18;10.20;1.00
23149;DHT22;11743;51.228;22.498;2023-05-27T01:01:40;10.20;99.90
23149;DHT22;11743;51.228;22.498;2023-05-27T01:02:05;10.20;1.00
23149;DHT22;11743;51.228;22.498;2023-05-27T01:02:27;10.10;1.00
23149;DHT22;11743;51.228;22.498;2023-05-27T01:02:50;10.10;1.00
23149;DHT22;11743;51.228;22.498;2023-05-27T01:03:12;10.10;1.00
23149;DHT22;11743;51.228;22.498;2023-05-27T01:03:35;10.10;1.00
23149;DHT22;11743;51.228;22.498;2023-05-27T01:03:57;10.10;1.00
23149;DHT22;11743;51.228;22.498;2023-05-27T01:04:20;10.10;1.00
23149;DHT22;11743;51.228;22.498;2023-05-27T01:04:42;10.10;1.00
23149;DHT22;11743;51.228;22.498;2023-05-27T01:05:05;10.10;1.00
23149;DHT22;11743;51.228;22.498;2023-05-27T01:05:27;10.10;1.00
23149;DHT22;11743;51.228;22.498;2023-05-27T01:05:56;10.10;1.00
23149;DHT22;11743;51.228;22.498;2023-05-27T01:09:20;10.10;1.00
23149;DHT22;11743;51.228;22.498;2023-05-27T01:10:10;10.00;1.00
23149;DHT22;11743;51.228;22.498;2023-05-27T01:10:41;10.00;1.00
23149;DHT22;11743;51.228;22.498;2023-05-27T01:11:08;10.00;1.00
23149;DHT22;11743;51.228;22.498;2023-05-27T01:11:39;10.00;1.00
23149;DHT22;11743;51.228;22.498;2023-05-27T01:12:14;10.00;1.00
23149;DHT22;11743;51.228;22.498;2023-05-27T01:12:47;10.00;1.00
23149;DHT22;11743;51.228;22.498;2023-05-27T01:13:18;10.00;1.00
23149;DHT22;11743;51.228;22.498;2023-05-27T01:13:52;10.00;1.00
23149;DHT22;11743;51.228;22.498;2023-05-27T01:14:18;10.00;1.00
23149;DHT22;11743;51.228;22.498;2023-05-27T01:14:44;10.00;1.00
23149;DHT22;11743;51.228;22.498;2023-05-27T01:15:07;10.00;1.00
23149;DHT22;11743;51.228;22.498;2023-05-27T01:15:31;10.00;1.00
23149;DHT22;11743;51.228;22.498;2023-05-27T01:15:55;10.00;1.00
23149;DHT22;11743;51.228;22.498;2023-05-27T01:16:21;10.00;1.00
23149;DHT22;11743;51.228;22.498;2023-05-27T01:16:46;10.00;1.00
23149;DHT22;11743;51.228;22.498;2023-05-27T01:17:09;10.00;1.00
23149;DHT22;11743;51.228;22.498;2023-05-27T01:17:33;10.00;1.00
23149;DHT22;11743;51.228;22.498;2023-05-27T01:18:04;10.00;1.00
23149;DHT22;11743;51.228;22.498;2023-05-27T01:18:27;10.00;1.00
23149;DHT22;11743;51.228;22.498;2023-05-27T01:18:54;10.00;1.00
23149;DHT22;11743;51.228;22.498;2023-05-27T01:19:29;10.00;1.00
23149;DHT22;11743;51.228;22.498;2023-05-27T01:19:52;10.00;1.00
23149;DHT22;11743;51.228;22.498;2023-05-27T01:20:16;10.00;1.00
23149;DHT22;11743;51.228;22.498;2023-05-27T01:20:39;10.00;1.00
23149;DHT22;11743;51.228;22.498;2023-05-27T01:21:06;8.70;1.00
23149;DHT22;11743;51.228;22.498;2023-05-27T01:21:30;10.00;1.00
23149;DHT22;11743;51.228;22.498;2023-05-27T01:21:53;10.00;1.00
23149;DHT22;11743;51.228;22.498;2023-05-27T01:22:17;10.00;1.00
23149;DHT22;11743;51.228;22.498;2023-05-27T01:22:41;10.00;1.00
23149;DHT22;11743;51.228;22.498;2023-05-27T01:23:03;10.00;1.00
23149;DHT22;11743;51.228;22.498;2023-05-27T01:23:26;10.00;1.00
23149;DHT22;11743;51.228;22.498;2023-05-27T01:23:49;9.90;1.00
23149;DHT22;11743;51.228;22.498;2023-05-27T01:24:11;9.90;1.00
23149;DHT22;11743;51.228;22.498;2023-05-27T01:24:33;9.90;1.00
23149;DHT22;11743;51.228;22.498;2023-05-27T01:24:55;9.90;1.00
23149;DHT22;11743;51.228;22.498;2023-05-27T01:25:20;9.90;1.00
23149;DHT22;11743;51.228;22.498;2023-05-27T01:25:42;9.90;1.00
23149;DHT22;11743;51.228;22.498;2023-05-27T01:26:07;9.90;1.00
23149;DHT22;11743;51.228;22.498;2023-05-27T01:26:29;9.90;1.00
23149;DHT22;11743;51.228;22.498;2023-05-27T01:26:52;9.90;1.00
23149;DHT22;11743;51.228;22.498;2023-05-27T01:27:14;9.90;1.00
23149;DHT22;11743;51.228;22.498;2023-05-27T01:27:39;9.90;1.00
23149;DHT22;11743;51.228;22.498;2023-05-27T01:28:04;9.90;1.00
23149;DHT22;11743;51.228;22.498;2023-05-27T01:28:26;9.90;1.00
23149;DHT22;11743;51.228;22.498;2023-05-27T01:28:48;9.80;1.00
23149;DHT22;11743;51.228;22.498;2023-05-27T01:29:10;9.80;1.00
23149;DHT22;11743;51.228;22.498;2023-05-27T01:29:32;9.80;1.00
23149;DHT22;11743;51.228;22.498;2023-05-27T01:29:54;9.80;1.00
23149;DHT22;11743;51.228;22.498;2023-05-27T01:30:17;9.80;1.00
23149;DHT22;11743;51.228;22.498;2023-05-27T01:30:39;9.80;1.00
23149;DHT22;11743;51.228;22.498;2023-05-27T01:31:15;9.80;1.00
23149;DHT22;11743;51.228;22.498;2023-05-27T01:31:46;9.80;1.00
23149;DHT22;11743;51.228;22.498;2023-05-27T01:32:30;9.80;1.00
23149;DHT22;11743;51.228;22.498;2023-05-27T01:33:17;9.70;1.00
23149;DHT22;11743;51.228;22.498;2023-05-27T01:33:42;9.80;1.00
23149;DHT22;11743;51.228;22.498;2023-05-27T01:34:09;9.70;1.00
23149;DHT22;11743;51.228;22.498;2023-05-27T01:34:59;9.70;1.00
23149;DHT22;11743;51.228;22.498;2023-05-27T01:35:30;9.70;1.00
23149;DHT22;11743;51.228;22.498;2023-05-27T01:35:55;9.70;1.00
23149;DHT22;11743;51.228;22.498;2023-05-27T01:36:20;9.60;1.00
23149;DHT22;11743;51.228;22.498;2023-05-27T01:36:48;9.60;1.00
23149;DHT22;11743;51.228;22.498;2023-05-27T01:37:14;9.60;1.00
23149;DHT22;11743;51.228;22.498;2023-05-27T01:37:38;9.60;1.00
23149;DHT22;11743;51.228;22.498;2023-05-27T01:38:05;9.60;1.00
23149;DHT22;11743;51.228;22.498;2023-05-27T01:38:31;9.60;1.00
23149;DHT22;11743;51.228;22.498;2023-05-27T01:38:55;9.50;1.00
23149;DHT22;11743;51.228;22.498;2023-05-27T01:39:18;9.50;1.00
23149;DHT22;11743;51.228;22.498;2023-05-27T01:39:41;9.50;1.00
23149;DHT22;11743;51.228;22.498;2023-05-27T01:40:07;9.50;1.00
23149;DHT22;11743;51.228;22.498;2023-05-27T01:40:29;9.50;1.00
23149;DHT22;11743;51.228;22.498;2023-05-27T01:40:52;9.50;1.00
23149;DHT22;11743;51.228;22.498;2023-05-27T01:41:15;9.50;1.00
23149;DHT22;11743;51.228;22.498;2023-05-27T01:41:38;9.50;1.00
23149;DHT22;11743;51.228;22.498;2023-05-27T01:42:01;9.50;1.00
23149;DHT22;11743;51.228;22.498;2023-05-27T01:42:25;9.50;1.00
23149;DHT22;11743;51.228;22.498;2023-05-27T01:42:47;9.50;1.00
23149;DHT22;11743;51.228;22.498;2023-05-27T01:43:10;9.50;1.00
23149;DHT22;11743;51.228;22.498;2023-05-27T01:43:33;9.50;1.00
23149;DHT22;11743;51.228;22.498;2023-05-27T01:43:55;9.50;1.00
23149;DHT22;11743;51.228;22.498;2023-05-27T01:44:18;9.50;1.00
23149;DHT22;11743;51.228;22.498;2023-05-27T01:44:41;9.40;1.00
23149;DHT22;11743;51.228;22.498;2023-05-27T01:45:05;9.40;1.00
23149;DHT22;11743;51.228;22.498;2023-05-27T01:45:27;9.40;1.00
23149;DHT22;11743;51.228;22.498;2023-05-27T01:45:49;9.40;1.00
23149;DHT22;11743;51.228;22.498;2023-05-27T01:46:12;9.40;1.00
23149;DHT22;11743;51.228;22.498;2023-05-27T01:46:34;9.40;1.00
23149;DHT22;11743;51.228;22.498;2023-05-27T01:47:00;9.40;1.00
23149;DHT22;11743;51.228;22.498;2023-05-27T01:47:22;9.40;1.00
23149;DHT22;11743;51.228;22.498;2023-05-27T01:47:44;9.40;1.00
23149;DHT22;11743;51.228;22.498;2023-05-27T01:48:09;9.40;1.00
23149;DHT22;11743;51.228;22.498;2023-05-27T01:48:31;9.40;1.00
23149;DHT22;11743;51.228;22.498;2023-05-27T01:48:53;9.30;1.00
23149;DHT22;11743;51.228;22.498;2023-05-27T01:49:15;9.30;1.00
23149;DHT22;11743;51.228;22.498;2023-05-27T01:49:37;9.30;1.00
23149;DHT22;11743;51.228;22.498;2023-05-27T01:49:59;9.30;1.00
23149;DHT22;11743;51.228;22.498;2023-05-27T01:50:21;9.30;1.00
23149;DHT22;11743;51.228;22.498;2023-05-27T01:50:43;9.30;1.00
23149;DHT22;11743;51.228;22.498;2023-05-27T01:51:05;9.30;1.00
23149;DHT22;11743;51.228;22.498;2023-05-27T01:51:27;9.30;1.00
23149;DHT22;11743;51.228;22.498;2023-05-27T01:51:49;9.20;1.00
23149;DHT22;11743;51.228;22.498;2023-05-27T01:52:11;9.30;1.00
23149;DHT22;11743;51.228;22.498;2023-05-27T01:52:32;9.30;1.00
23149;DHT22;11743;51.228;22.498;2023-05-27T01:52:54;9.20;1.00
23149;DHT22;11743;51.228;22.498;2023-05-27T01:53:16;9.20;1.00
23149;DHT22;11743;51.228;22.498;2023-05-27T01:53:38;9.20;1.00
23149;DHT22;11743;51.228;22.498;2023-05-27T01:54:00;9.20;1.00
23149;DHT22;11743;51.228;22.498;2023-05-27T01:54:22;9.20;1.00
23149;DHT22;11743;51.228;22.498;2023-05-27T01:54:44;9.20;1.00
23149;DHT22;11743;51.228;22.498;2023-05-27T01:55:06;9.20;1.00
23149;DHT22;11743;51.228;22.498;2023-05-27T01:55:30;9.20;1.00
23149;DHT22;11743;51.228;22.498;2023-05-27T01:55:52;9.20;1.00
23149;DHT22;11743;51.228;22.498;2023-05-27T01:56:14;9.20;1.00
23149;DHT22;11743;51.228;22.498;2023-05-27T01:56:37;9.20;12.90
23149;DHT22;11743;51.228;22.498;2023-05-27T01:56:59;9.10;10.20
23149;DHT22;11743;51.228;22.498;2023-05-27T01:57:21;9.10;3.20
23149;DHT22;11743;51.228;22.498;2023-05-27T01:57:43;9.10;19.20
23149;DHT22;11743;51.228;22.498;2023-05-27T01:58:05;9.10;49.30
23149;DHT22;11743;51.228;22.498;2023-05-27T01:58:27;9.10;29.80
23149;DHT22;11743;51.228;22.498;2023-05-27T01:58:49;9.10;43.50
23149;DHT22;11743;51.228;22.498;2023-05-27T01:59:11;9.10;39.50
23149;DHT22;11743;51.228;22.498;2023-05-27T01:59:33;9.10;40.50
23149;DHT22;11743;51.228;22.498;2023-05-27T01:59:55;9.10;99.90
23149;DHT22;11743;51.228;22.498;2023-05-27T02:00:17;9.10;99.90
23149;DHT22;11743;51.228;22.498;2023-05-27T02:00:38;9.10;99.90
23149;DHT22;11743;51.228;22.498;2023-05-27T02:01:01;9.00;99.90
23149;DHT22;11743;51.228;22.498;2023-05-27T02:01:23;9.00;99.90
23149;DHT22;11743;51.228;22.498;2023-05-27T02:01:44;9.00;99.90
23149;DHT22;11743;51.228;22.498;2023-05-27T02:02:07;9.00;99.90
23149;DHT22;11743;51.228;22.498;2023-05-27T02:02:28;9.00;99.90
23149;DHT22;11743;51.228;22.498;2023-05-27T02:02:51;9.00;99.90
23149;DHT22;11743;51.228;22.498;2023-05-27T02:03:13;9.00;99.90
23149;DHT22;11743;51.228;22.498;2023-05-27T02:03:35;9.00;99.90
23149;DHT22;11743;51.228;22.498;2023-05-27T02:03:57;8.90;99.90
23149;DHT22;11743;51.228;22.498;2023-05-27T02:04:19;9.00;99.90
23149;DHT22;11743;51.228;22.498;2023-05-27T02:04:41;9.00;99.90
23149;DHT22;11743;51.228;22.498;2023-05-27T02:05:03;8.90;99.90
23149;DHT22;11743;51.228;22.498;2023-05-27T02:05:25;8.90;99.90
23149;DHT22;11743;51.228;22.498;2023-05-27T02:05:47;8.90;99.90
23149;DHT22;11743;51.228;22.498;2023-05-27T02:06:08;8.90;99.90
23149;DHT22;11743;51.228;22.498;2023-05-27T02:06:31;8.90;99.90
23149;DHT22;11743;51.228;22.498;2023-05-27T02:06:53;8.90;99.90
23149;DHT22;11743;51.228;22.498;2023-05-27T02:07:15;8.90;99.90
23149;DHT22;11743;51.228;22.498;2023-05-27T02:07:38;8.90;99.90
23149;DHT22;11743;51.228;22.498;2023-05-27T02:08:00;8.80;99.90
23149;DHT22;11743;51.228;22.498;2023-05-27T02:08:22;8.80;99.90
23149;DHT22;11743;51.228;22.498;2023-05-27T02:08:44;8.90;1.00
23149;DHT22;11743;51.228;22.498;2023-05-27T02:09:06;8.80;1.00
23149;DHT22;11743;51.228;22.498;2023-05-27T02:09:28;8.80;1.00
23149;DHT22;11743;51.228;22.498;2023-05-27T02:09:50;8.80;1.00
23149;DHT22;11743;51.228;22.498;2023-05-27T02:10:12;8.80;1.00
23149;DHT22;11743;51.228;22.498;2023-05-27T02:10:34;8.80;1.00
23149;DHT22;11743;51.228;22.498;2023-05-27T02:10:56;8.80;1.00
23149;DHT22;11743;51.228;22.498;2023-05-27T02:11:17;8.80;1.00
23149;DHT22;11743;51.228;22.498;2023-05-27T02:11:39;8.80;1.00
23149;DHT22;11743;51.228;22.498;2023-05-27T02:12:01;8.80;1.00
23149;DHT22;11743;51.228;22.498;2023-05-27T02:12:23;8.80;1.00
23149;DHT22;11743;51.228;22.498;2023-05-27T02:12:45;8.80;1.00
23149;DHT22;11743;51.228;22.498;2023-05-27T02:13:07;8.80;1.00
23149;DHT22;11743;51.228;22.498;2023-05-27T02:13:28;8.80;1.00
23149;DHT22;11743;51.228;22.498;2023-05-27T02:13:50;8.80;1.00
23149;DHT22;11743;51.228;22.498;2023-05-27T02:14:14;8.80;1.00
23149;DHT22;11743;51.228;22.498;2023-05-27T02:14:38;8.80;1.00
23149;DHT22;11743;51.228;22.498;2023-05-27T02:15:00;8.80;1.00
23149;DHT22;11743;51.228;22.498;2023-05-27T02:15:22;8.80;1.00
23149;DHT22;11743;51.228;22.498;2023-05-27T02:15:45;8.70;1.00
23149;DHT22;11743;51.228;22.498;2023-05-27T02:16:07;8.70;1.00
23149;DHT22;11743;51.228;22.498;2023-05-27T02:16:28;8.70;1.00
23149;DHT22;11743;51.228;22.498;2023-05-27T02:16:52;8.70;1.00
23149;DHT22;11743;51.228;22.498;2023-05-27T02:17:14;8.70;1.00
23149;DHT22;11743;51.228;22.498;2023-05-27T02:17:36;8.80;1.00
23149;DHT22;11743;51.228;22.498;2023-05-27T02:17:59;8.70;1.00
23149;DHT22;11743;51.228;22.498;2023-05-27T02:18:21;8.70;1.00
23149;DHT22;11743;51.228;22.498;2023-05-27T02:18:43;8.70;1.00
23149;DHT22;11743;51.228;22.498;2023-05-27T02:19:05;8.70;1.00
23149;DHT22;11743;51.228;22.498;2023-05-27T02:19:27;8.70;1.00
23149;DHT22;11743;51.228;22.498;2023-05-27T02:19:49;8.70;1.00
23149;DHT22;11743;51.228;22.498;2023-05-27T02:20:11;8.70;1.00
23149;DHT22;11743;51.228;22.498;2023-05-27T02:20:33;8.60;1.00
23149;DHT22;11743;51.228;22.498;2023-05-27T02:20:55;8.60;1.00
23149;DHT22;11743;51.228;22.498;2023-05-27T02:21:17;8.60;1.00
23149;DHT22;11743;51.228;22.498;2023-05-27T02:21:39;8.60;1.00
23149;DHT22;11743;51.228;22.498;2023-05-27T02:22:01;8.60;1.00
23149;DHT22;11743;51.228;22.498;2023-05-27T02:22:23;8.50;1.00
23149;DHT22;11743;51.228;22.498;2023-05-27T02:22:44;10.80;1.00
23149;DHT22;11743;51.228;22.498;2023-05-27T02:23:07;8.60;35.50
23149;DHT22;11743;51.228;22.498;2023-05-27T02:23:29;8.60;73.80
23149;DHT22;11743;51.228;22.498;2023-05-27T02:23:51;8.50;99.70
23149;DHT22;11743;51.228;22.498;2023-05-27T02:24:13;8.60;99.90
23149;DHT22;11743;51.228;22.498;2023-05-27T02:24:34;8.60;99.90
23149;DHT22;11743;51.228;22.498;2023-05-27T02:24:56;8.50;99.90
23149;DHT22;11743;51.228;22.498;2023-05-27T02:25:18;8.60;99.90
23149;DHT22;11743;51.228;22.498;2023-05-27T02:25:40;8.60;99.90
23149;DHT22;11743;51.228;22.498;2023-05-27T02:26:02;8.50;99.90
23149;DHT22;11743;51.228;22.498;2023-05-27T02:26:24;7.80;99.90
23149;DHT22;11743;51.228;22.498;2023-05-27T02:26:46;8.60;99.90
23149;DHT22;11743;51.228;22.498;2023-05-27T02:27:08;8.50;99.90
23149;DHT22;11743;51.228;22.498;2023-05-27T02:27:30;8.50;99.90
23149;DHT22;11743;51.228;22.498;2023-05-27T02:27:52;8.50;99.90
23149;DHT22;11743;51.228;22.498;2023-05-27T02:28:14;8.50;99.90
23149;DHT22;11743;51.228;22.498;2023-05-27T02:28:35;8.50;99.90
23149;DHT22;11743;51.228;22.498;2023-05-27T02:28:57;8.50;99.90